createdAt,value
2017-09-24T00:00:39.368Z,18.60
2017-09-24T00:03:06.203Z,16.30
2017-09-24T00:05:32.961Z,16.57
2017-09-24T00:07:59.759Z,16.37
2017-09-24T00:10:26.506Z,17.07
2017-09-24T00:12:53.279Z,16.07
2017-09-24T00:15:20.067Z,15.87
2017-09-24T00:17:46.837Z,16.00
2017-09-24T00:20:13.598Z,18.00
2017-09-24T00:22:40.446Z,16.50
2017-09-24T00:25:07.290Z,16.03
2017-09-24T00:27:34.069Z,16.40
2017-09-24T00:30:00.892Z,16.70
2017-09-24T00:32:27.691Z,16.17
2017-09-24T00:34:54.494Z,16.13
2017-09-24T00:37:21.298Z,18.43
2017-09-24T00:39:48.072Z,17.33
2017-09-24T00:42:14.851Z,15.70
2017-09-24T00:44:41.632Z,15.83
2017-09-24T00:47:08.405Z,16.60
2017-09-24T00:49:35.180Z,16.70
2017-09-24T00:52:01.988Z,15.90
2017-09-24T00:54:28.755Z,15.83
2017-09-24T00:56:55.527Z,15.00
2017-09-24T00:59:22.550Z,15.80
2017-09-24T01:01:49.319Z,15.30
2017-09-24T01:04:16.086Z,13.40
2017-09-24T01:06:42.926Z,13.37
2017-09-24T01:09:09.686Z,13.87
2017-09-24T01:11:36.466Z,15.50
2017-09-24T01:14:03.264Z,14.60
2017-09-24T01:16:30.084Z,14.43
2017-09-24T01:18:56.828Z,14.20
2017-09-24T01:21:23.652Z,13.77
2017-09-24T01:23:50.423Z,13.33
2017-09-24T01:26:17.212Z,14.70
2017-09-24T01:28:44.031Z,14.00
2017-09-24T01:31:10.795Z,13.70
2017-09-24T01:33:37.588Z,14.80
2017-09-24T01:36:04.419Z,13.97
2017-09-24T01:38:31.196Z,13.37
2017-09-24T01:40:57.959Z,12.90
2017-09-24T01:43:24.775Z,13.77
2017-09-24T01:45:51.551Z,13.43
2017-09-24T01:48:18.322Z,14.17
2017-09-24T01:50:45.157Z,13.23
2017-09-24T01:53:11.932Z,13.20
2017-09-24T01:55:38.691Z,12.40
2017-09-24T01:58:05.525Z,12.50
2017-09-24T02:00:32.328Z,12.50
2017-09-24T02:02:59.103Z,12.13
2017-09-24T02:05:25.905Z,14.00
2017-09-24T02:07:52.664Z,11.20
2017-09-24T02:10:19.454Z,12.10
2017-09-24T02:12:46.468Z,11.90
2017-09-24T02:15:14.174Z,12.13
2017-09-24T02:17:41.463Z,11.40
2017-09-24T02:20:08.250Z,9.70
2017-09-24T02:22:35.000Z,11.33
2017-09-24T02:25:01.770Z,11.07
2017-09-24T02:27:28.717Z,9.60
2017-09-24T02:29:55.456Z,9.93
2017-09-24T02:32:22.233Z,9.20
2017-09-24T02:34:49.017Z,9.43
2017-09-24T02:37:15.772Z,8.77
2017-09-24T02:39:42.521Z,8.00
2017-09-24T02:42:09.312Z,8.53
2017-09-24T02:44:36.114Z,8.37
2017-09-24T02:47:02.893Z,8.30
2017-09-24T02:49:29.698Z,9.17
2017-09-24T02:51:56.517Z,8.00
2017-09-24T02:54:23.421Z,7.83
2017-09-24T02:56:50.911Z,8.57
2017-09-24T02:59:17.651Z,7.73
2017-09-24T03:01:44.401Z,8.60
2017-09-24T03:04:11.210Z,8.10
2017-09-24T03:06:37.980Z,7.43
2017-09-24T03:09:04.754Z,8.70
2017-09-24T03:11:31.548Z,8.00
2017-09-24T03:13:58.291Z,8.47
2017-09-24T03:16:25.047Z,7.80
2017-09-24T03:18:51.858Z,8.20
2017-09-24T03:21:18.616Z,9.53
2017-09-24T03:23:45.360Z,8.97
2017-09-24T03:26:12.157Z,7.80
2017-09-24T03:28:38.903Z,7.60
2017-09-24T03:31:05.659Z,7.43
2017-09-24T03:33:32.440Z,8.60
2017-09-24T03:35:59.213Z,8.93
2017-09-24T03:38:25.969Z,8.03
2017-09-24T03:40:52.778Z,8.83
2017-09-24T03:43:19.537Z,8.13
2017-09-24T03:45:46.279Z,8.80
2017-09-24T03:48:13.067Z,8.63
2017-09-24T03:50:39.807Z,7.40
2017-09-24T03:53:06.555Z,14.33
2017-09-24T03:55:33.345Z,12.63
2017-09-24T03:58:00.104Z,12.33
2017-09-24T04:00:26.865Z,9.73
2017-09-24T04:02:53.660Z,10.70
2017-09-24T04:05:20.419Z,10.00
2017-09-24T04:07:47.164Z,9.40
2017-09-24T04:10:13.991Z,9.60
2017-09-24T04:12:40.728Z,8.50
2017-09-24T04:15:07.491Z,8.77
2017-09-24T04:17:34.293Z,9.57
2017-09-24T04:20:01.063Z,8.20
2017-09-24T04:22:27.803Z,9.27
2017-09-24T04:24:54.579Z,8.63
2017-09-24T04:27:21.330Z,9.60
2017-09-24T04:29:48.103Z,10.00
2017-09-24T04:32:14.888Z,9.90
2017-09-24T04:34:41.708Z,9.20
2017-09-24T04:37:08.492Z,10.00
2017-09-24T04:39:35.297Z,10.03
2017-09-24T04:42:02.049Z,9.60
2017-09-24T04:44:28.823Z,10.50
2017-09-24T04:46:55.625Z,8.73
2017-09-24T04:49:22.377Z,9.87
2017-09-24T04:51:49.142Z,9.67
2017-09-24T04:54:15.957Z,9.33
2017-09-24T04:56:43.696Z,9.87
2017-09-24T04:59:10.481Z,10.40
2017-09-24T05:01:37.288Z,10.33
2017-09-24T05:04:04.044Z,10.40
2017-09-24T05:06:30.805Z,9.67
2017-09-24T05:08:57.591Z,10.70
2017-09-24T05:11:24.339Z,10.70
2017-09-24T05:13:51.083Z,10.60
2017-09-24T05:16:17.878Z,11.60
2017-09-24T05:18:44.624Z,11.30
2017-09-24T05:21:11.461Z,11.43
2017-09-24T05:23:38.258Z,11.23
2017-09-24T05:26:05.016Z,10.40
2017-09-24T05:28:31.786Z,10.90
2017-09-24T05:30:58.594Z,12.10
2017-09-24T05:33:25.365Z,12.37
2017-09-24T05:35:52.361Z,11.20
2017-09-24T05:38:19.139Z,11.53
2017-09-24T05:40:45.908Z,12.23
2017-09-24T05:43:13.444Z,12.50
2017-09-24T05:45:40.266Z,11.20
2017-09-24T05:48:07.034Z,11.90
2017-09-24T05:50:33.783Z,12.13
2017-09-24T05:53:00.571Z,12.03
2017-09-24T05:55:27.339Z,11.43
2017-09-24T05:57:54.080Z,10.20
2017-09-24T06:00:20.894Z,12.93
2017-09-24T06:02:47.643Z,11.57
2017-09-24T06:05:14.403Z,13.53
2017-09-24T06:07:41.203Z,12.20
2017-09-24T06:10:07.996Z,12.47
2017-09-24T06:12:34.771Z,12.73
2017-09-24T06:15:01.566Z,11.83
2017-09-24T06:17:28.349Z,11.67
2017-09-24T06:19:55.107Z,11.33
2017-09-24T06:22:21.887Z,11.40
2017-09-24T06:24:48.711Z,13.60
2017-09-24T06:27:15.477Z,11.50
2017-09-24T06:29:42.268Z,12.23
2017-09-24T06:32:09.037Z,12.17
2017-09-24T06:34:35.810Z,11.60
2017-09-24T06:37:02.629Z,12.07
2017-09-24T06:39:29.384Z,12.13
2017-09-24T06:41:56.422Z,12.90
2017-09-24T06:44:23.246Z,12.43
2017-09-24T06:46:50.023Z,12.47
2017-09-24T06:49:16.792Z,11.23
2017-09-24T06:51:43.606Z,10.97
2017-09-24T06:54:10.378Z,12.43
2017-09-24T06:56:37.211Z,11.37
2017-09-24T06:59:04.054Z,11.90
2017-09-24T07:01:31.410Z,11.37
2017-09-24T07:03:58.168Z,11.80
2017-09-24T07:06:24.963Z,11.97
2017-09-24T07:08:51.740Z,11.67
2017-09-24T07:11:18.515Z,12.53
2017-09-24T07:13:45.295Z,11.23
2017-09-24T07:16:13.339Z,11.50
2017-09-24T07:18:40.083Z,12.13
2017-09-24T07:21:06.882Z,12.20
2017-09-24T07:23:33.636Z,12.70
2017-09-24T07:26:00.412Z,11.73
2017-09-24T07:28:27.214Z,11.87
2017-09-24T07:30:54.022Z,11.57
2017-09-24T07:33:20.782Z,10.90
2017-09-24T07:35:47.559Z,12.13
2017-09-24T07:38:14.326Z,10.70
2017-09-24T07:40:41.118Z,10.20
2017-09-24T07:43:07.922Z,12.23
2017-09-24T07:45:34.714Z,10.63
2017-09-24T07:48:01.467Z,11.13
2017-09-24T07:50:28.271Z,10.27
2017-09-24T07:52:55.233Z,10.30
2017-09-24T07:55:22.037Z,10.83
2017-09-24T07:57:48.840Z,10.60
2017-09-24T08:00:15.592Z,11.47
2017-09-24T08:02:42.351Z,9.40
2017-09-24T08:05:09.154Z,11.33
2017-09-24T08:07:35.940Z,11.53
2017-09-24T08:10:02.699Z,10.27
2017-09-24T08:12:29.488Z,12.27
2017-09-24T08:14:56.244Z,12.20
2017-09-24T08:17:23.009Z,13.30
2017-09-24T08:19:49.837Z,12.90
2017-09-24T08:22:16.587Z,12.50
2017-09-24T08:24:43.344Z,14.13
2017-09-24T08:27:10.150Z,13.53
2017-09-24T08:29:36.900Z,14.47
2017-09-24T08:32:04.247Z,11.20
2017-09-24T08:34:31.038Z,12.50
2017-09-24T08:36:57.893Z,12.37
2017-09-24T08:39:24.669Z,13.27
2017-09-24T08:41:51.480Z,10.80
2017-09-24T08:44:18.224Z,12.33
2017-09-24T08:46:45.001Z,11.10
2017-09-24T08:49:11.850Z,12.17
2017-09-24T08:51:38.621Z,11.40
2017-09-24T08:54:05.387Z,12.67
2017-09-24T08:56:32.477Z,11.37
2017-09-24T08:58:59.220Z,12.40
2017-09-24T09:01:25.989Z,12.07
2017-09-24T09:03:52.790Z,12.63
2017-09-24T09:06:19.554Z,10.90
2017-09-24T09:08:46.354Z,12.47
2017-09-24T09:11:13.257Z,11.30
2017-09-24T09:13:40.003Z,12.40
2017-09-24T09:16:06.759Z,12.90
2017-09-24T09:18:33.564Z,11.00
2017-09-24T09:21:00.316Z,11.30
2017-09-24T09:23:27.086Z,11.30
2017-09-24T09:25:53.876Z,11.90
2017-09-24T09:28:20.625Z,11.53
2017-09-24T09:30:47.371Z,12.37
2017-09-24T09:33:20.102Z,11.67
2017-09-24T09:35:47.200Z,12.27
2017-09-24T09:38:13.966Z,12.03
2017-09-24T09:40:40.974Z,10.53
2017-09-24T09:43:07.720Z,10.50
2017-09-24T09:45:40.345Z,11.90
2017-09-24T09:48:07.092Z,12.00
2017-09-24T09:50:33.887Z,11.20
2017-09-24T09:53:00.677Z,11.67
2017-09-24T09:55:27.438Z,11.00
2017-09-24T09:57:54.186Z,12.27
2017-09-24T10:00:21.003Z,12.27
2017-09-24T10:02:47.755Z,12.23
2017-09-24T10:05:14.512Z,12.00
2017-09-24T10:07:47.194Z,11.13
2017-09-24T10:10:16.877Z,9.30
2017-09-24T10:12:44.414Z,10.40
2017-09-24T10:15:11.269Z,11.70
2017-09-24T10:17:38.083Z,11.60
2017-09-24T10:20:04.971Z,11.07
2017-09-24T10:22:31.779Z,12.20
2017-09-24T10:24:58.546Z,10.23
2017-09-24T10:27:26.299Z,10.33
2017-09-24T10:29:58.778Z,10.40
2017-09-24T10:32:25.574Z,10.43
2017-09-24T10:34:52.508Z,11.50
2017-09-24T10:37:19.302Z,10.77
2017-09-24T10:39:46.075Z,10.07
2017-09-24T10:42:13.140Z,9.80
2017-09-24T10:44:39.942Z,10.80
2017-09-24T10:47:06.719Z,11.90
2017-09-24T10:49:33.459Z,10.67
2017-09-24T10:52:00.260Z,11.33
2017-09-24T10:54:27.039Z,13.13
2017-09-24T10:56:53.800Z,12.13
2017-09-24T10:59:20.626Z,10.80
2017-09-24T11:01:47.420Z,12.23
2017-09-24T11:04:14.223Z,11.70
2017-09-24T11:06:41.026Z,12.17
2017-09-24T11:09:07.776Z,12.30
2017-09-24T11:11:34.829Z,14.07
2017-09-24T11:14:01.883Z,14.97
2017-09-24T11:16:28.640Z,16.30
2017-09-24T11:18:55.414Z,15.10
2017-09-24T11:21:22.297Z,15.97
2017-09-24T11:23:49.052Z,18.20
2017-09-24T11:26:16.134Z,17.70
2017-09-24T11:28:43.549Z,16.70
2017-09-24T11:31:10.315Z,17.87
2017-09-24T11:33:37.077Z,17.57
2017-09-24T11:36:03.899Z,16.57
2017-09-24T11:38:31.281Z,16.83
2017-09-24T11:40:58.050Z,15.80
2017-09-24T11:43:24.837Z,17.00
2017-09-24T11:45:51.602Z,17.17
2017-09-24T11:48:18.365Z,16.40
2017-09-24T11:50:45.177Z,16.90
2017-09-24T11:53:11.947Z,17.27
2017-09-24T11:55:38.697Z,17.97
2017-09-24T11:58:05.538Z,18.00
2017-09-24T12:00:32.319Z,16.60
2017-09-24T12:02:59.711Z,16.40
2017-09-24T12:05:26.514Z,19.83
2017-09-24T12:07:53.673Z,18.30
2017-09-24T12:10:20.447Z,19.33
2017-09-24T12:12:47.291Z,18.43
2017-09-24T12:15:14.053Z,18.67
2017-09-24T12:17:40.802Z,18.73
2017-09-24T12:20:07.643Z,19.10
2017-09-24T12:22:34.392Z,17.07
2017-09-24T12:25:01.132Z,18.93
2017-09-24T12:27:28.724Z,19.37
2017-09-24T12:29:55.502Z,18.90
2017-09-24T12:32:22.260Z,19.00
2017-09-24T12:34:49.065Z,19.70
2017-09-24T12:37:15.829Z,17.30
2017-09-24T12:39:42.721Z,18.80
2017-09-24T12:42:09.503Z,16.90
2017-09-24T12:44:36.280Z,18.77
2017-09-24T12:47:03.042Z,19.53
2017-09-24T12:49:29.846Z,17.23
2017-09-24T12:51:56.605Z,18.17
2017-09-24T12:54:23.442Z,18.50
2017-09-24T12:56:50.263Z,17.03
2017-09-24T12:59:17.026Z,19.70
2017-09-24T13:01:43.768Z,17.30
2017-09-24T13:04:10.573Z,17.93
2017-09-24T13:06:37.419Z,17.00
2017-09-24T13:09:04.193Z,19.33
2017-09-24T13:11:30.995Z,18.10
2017-09-24T13:13:57.760Z,18.83
2017-09-24T13:16:24.526Z,18.63
2017-09-24T13:18:51.315Z,20.10
2017-09-24T13:21:18.072Z,16.57
2017-09-24T13:23:44.827Z,18.23
2017-09-24T13:26:11.639Z,18.60
2017-09-24T13:28:38.388Z,19.17
2017-09-24T13:31:05.150Z,18.73
2017-09-24T13:33:31.933Z,17.73
2017-09-24T13:35:58.706Z,17.90
2017-09-24T13:38:25.457Z,18.17
2017-09-24T13:40:52.275Z,17.93
2017-09-24T13:43:19.020Z,17.87
2017-09-24T13:45:45.773Z,18.90
2017-09-24T13:48:12.551Z,19.37
2017-09-24T13:50:39.307Z,18.33
2017-09-24T13:53:06.070Z,17.67
2017-09-24T13:55:32.860Z,18.90
2017-09-24T13:57:59.607Z,17.77
2017-09-24T14:00:26.374Z,19.40
2017-09-24T14:02:53.182Z,18.00
2017-09-24T14:05:19.946Z,20.20
2017-09-24T14:07:46.712Z,21.60
2017-09-24T14:10:13.510Z,20.77
2017-09-24T14:12:40.278Z,20.13
2017-09-24T14:15:07.053Z,20.17
2017-09-24T14:17:33.862Z,19.50
2017-09-24T14:20:00.645Z,21.93
2017-09-24T14:22:27.405Z,24.17
2017-09-24T14:24:54.206Z,21.20
2017-09-24T14:27:20.953Z,21.40
2017-09-24T14:29:47.751Z,21.47
2017-09-24T14:32:14.557Z,23.07
2017-09-24T14:34:41.319Z,23.40
2017-09-24T14:37:08.064Z,21.90
2017-09-24T14:39:34.870Z,24.07
2017-09-24T14:42:01.666Z,21.97
2017-09-24T14:44:28.411Z,21.83
2017-09-24T14:46:55.205Z,23.33
2017-09-24T14:49:22.025Z,21.73
2017-09-24T14:51:48.791Z,21.37
2017-09-24T14:54:15.598Z,21.27
2017-09-24T14:56:42.377Z,22.03
2017-09-24T14:59:09.138Z,21.33
2017-09-24T15:01:35.966Z,22.33
2017-09-24T15:04:02.731Z,20.70
2017-09-24T15:06:29.487Z,22.87
2017-09-24T15:08:56.272Z,22.13
2017-09-24T15:11:23.050Z,22.10
2017-09-24T15:13:49.831Z,23.70
2017-09-24T15:16:16.619Z,24.70
2017-09-24T15:18:43.384Z,26.00
2017-09-24T15:21:10.170Z,24.40
2017-09-24T15:23:36.982Z,26.20
2017-09-24T15:26:03.735Z,26.63
2017-09-24T15:28:30.508Z,27.17
2017-09-24T15:30:57.310Z,26.27
2017-09-24T15:33:24.057Z,24.70
2017-09-24T15:35:51.807Z,25.57
2017-09-24T15:38:18.599Z,25.13
2017-09-24T15:40:45.382Z,24.83
2017-09-24T15:43:12.163Z,24.90
2017-09-24T15:45:38.997Z,25.97
2017-09-24T15:48:05.766Z,24.17
2017-09-24T15:50:32.517Z,25.77
2017-09-24T15:52:59.940Z,25.43
2017-09-24T15:55:26.714Z,27.10
2017-09-24T15:57:53.482Z,25.80
2017-09-24T16:00:20.283Z,25.33
2017-09-24T16:02:47.837Z,25.43
2017-09-24T16:05:14.606Z,26.93
2017-09-24T16:07:41.497Z,26.30
2017-09-24T16:10:08.250Z,25.33
2017-09-24T16:12:34.996Z,26.50
2017-09-24T16:15:01.784Z,27.13
2017-09-24T16:17:28.604Z,25.13
2017-09-24T16:19:55.400Z,25.63
2017-09-24T16:22:22.228Z,27.00
2017-09-24T16:24:49.776Z,25.23
2017-09-24T16:27:16.598Z,26.40
2017-09-24T16:29:43.385Z,26.77
2017-09-24T16:32:10.147Z,26.60
2017-09-24T16:34:36.962Z,27.60
2017-09-24T16:37:03.803Z,27.73
2017-09-24T16:39:30.659Z,26.70
2017-09-24T16:41:57.439Z,26.40
2017-09-24T16:44:24.236Z,24.70
2017-09-24T16:46:51.021Z,25.33
2017-09-24T16:49:17.777Z,25.97
2017-09-24T16:51:44.601Z,24.77
2017-09-24T16:54:11.394Z,25.00
2017-09-24T16:56:38.162Z,25.77
2017-09-24T16:59:04.967Z,25.93
2017-09-24T17:01:32.338Z,26.67
2017-09-24T17:03:59.132Z,25.30
2017-09-24T17:06:25.970Z,23.83
2017-09-24T17:08:52.726Z,24.53
2017-09-24T17:11:19.753Z,26.07
2017-09-24T17:13:46.569Z,26.63
2017-09-24T17:16:13.316Z,26.10
2017-09-24T17:18:40.079Z,24.70
2017-09-24T17:21:06.887Z,24.30
2017-09-24T17:23:33.660Z,24.90
2017-09-24T17:26:00.455Z,25.47
2017-09-24T17:28:27.267Z,24.43
2017-09-24T17:30:54.011Z,24.37
2017-09-24T17:33:20.813Z,24.00
2017-09-24T17:35:47.606Z,22.60
2017-09-24T17:38:14.365Z,22.80
2017-09-24T17:40:41.284Z,22.70
2017-09-24T17:43:08.076Z,23.73
2017-09-24T17:45:34.858Z,25.00
2017-09-24T17:48:01.631Z,26.80
2017-09-24T17:50:28.725Z,24.67
2017-09-24T17:52:55.483Z,23.70
2017-09-24T17:55:22.259Z,25.50
2017-09-24T17:57:49.062Z,23.70
2017-09-24T18:00:15.854Z,24.00
2017-09-24T18:02:45.454Z,23.67
2017-09-24T18:05:12.260Z,23.40
2017-09-24T18:07:39.052Z,25.00
2017-09-24T18:10:05.821Z,24.40
2017-09-24T18:12:32.607Z,24.73
2017-09-24T18:14:59.419Z,25.47
2017-09-24T18:17:26.193Z,26.13
2017-09-24T18:19:53.768Z,25.60
2017-09-24T18:22:20.578Z,24.30
2017-09-24T18:24:47.327Z,26.43
2017-09-24T18:27:14.844Z,25.17
2017-09-24T18:29:41.615Z,27.73
2017-09-24T18:32:08.398Z,27.83
2017-09-24T18:34:35.181Z,24.63
2017-09-24T18:37:01.944Z,25.83
2017-09-24T18:39:28.731Z,28.53
2017-09-24T18:41:55.571Z,27.00
2017-09-24T18:44:22.328Z,28.03
2017-09-24T18:46:49.096Z,24.87
2017-09-24T18:49:15.900Z,24.10
2017-09-24T18:51:42.677Z,21.63
2017-09-24T18:54:09.427Z,24.10
2017-09-24T18:56:36.239Z,19.80
2017-09-24T18:59:03.660Z,22.50
2017-09-24T19:01:31.375Z,22.40
2017-09-24T19:03:58.172Z,23.40
2017-09-24T19:06:24.937Z,21.07
2017-09-24T19:08:51.704Z,22.57
2017-09-24T19:11:19.261Z,23.33
2017-09-24T19:13:46.008Z,21.67
2017-09-24T19:16:12.765Z,22.07
2017-09-24T19:18:39.614Z,19.67
2017-09-24T19:21:06.399Z,20.50
2017-09-24T19:23:33.952Z,22.00
2017-09-24T19:26:00.737Z,22.23
2017-09-24T19:28:27.524Z,20.67
2017-09-24T19:30:54.331Z,21.17
2017-09-24T19:33:21.127Z,21.47
2017-09-24T19:35:47.917Z,21.47
2017-09-24T19:38:14.682Z,19.77
2017-09-24T19:40:41.466Z,23.83
2017-09-24T19:43:08.249Z,22.27
2017-09-24T19:45:35.046Z,22.60
2017-09-24T19:48:01.829Z,21.63
2017-09-24T19:50:28.598Z,22.83
2017-09-24T19:52:56.942Z,22.30
2017-09-24T19:55:23.771Z,22.33
2017-09-24T19:57:50.566Z,20.93
2017-09-24T20:00:17.343Z,21.90
2017-09-24T20:02:44.178Z,20.30
2017-09-24T20:05:10.954Z,19.97
2017-09-24T20:07:37.713Z,19.27
2017-09-24T20:10:04.507Z,20.70
2017-09-24T20:12:31.255Z,20.43
2017-09-24T20:14:58.026Z,19.77
2017-09-24T20:17:24.874Z,20.47
2017-09-24T20:19:51.634Z,22.23
2017-09-24T20:22:18.401Z,20.27
2017-09-24T20:24:45.192Z,22.30
2017-09-24T20:27:11.936Z,23.10
2017-09-24T20:29:38.702Z,20.87
2017-09-24T20:32:06.170Z,18.97
2017-09-24T20:34:32.941Z,22.03
2017-09-24T20:36:59.726Z,19.90
2017-09-24T20:39:26.543Z,21.17
2017-09-24T20:41:53.322Z,18.47
2017-09-24T20:44:20.102Z,20.50
2017-09-24T20:46:46.881Z,18.70
2017-09-24T20:49:13.678Z,18.20
2017-09-24T20:51:40.439Z,20.17
2017-09-24T20:54:07.266Z,18.63
2017-09-24T20:56:34.023Z,18.83
2017-09-24T20:59:00.806Z,19.07
2017-09-24T21:01:27.610Z,18.57
2017-09-24T21:03:54.364Z,19.00
2017-09-24T21:06:21.146Z,18.00
2017-09-24T21:08:47.929Z,18.77
2017-09-24T21:11:14.690Z,19.70
2017-09-24T21:13:41.457Z,20.10
2017-09-24T21:16:08.260Z,20.43
2017-09-24T21:18:35.027Z,19.67
2017-09-24T21:21:01.828Z,18.97
2017-09-24T21:23:28.655Z,19.20
2017-09-24T21:25:55.412Z,20.57
2017-09-24T21:28:22.210Z,22.13
2017-09-24T21:30:48.997Z,21.07
2017-09-24T21:33:15.834Z,20.30
2017-09-24T21:35:42.575Z,18.93
2017-09-24T21:38:09.424Z,20.10
2017-09-24T21:40:36.194Z,19.30
2017-09-24T21:43:02.971Z,20.53
2017-09-24T21:45:31.161Z,22.57
2017-09-24T21:47:57.914Z,21.87
2017-09-24T21:50:24.663Z,21.70
2017-09-24T21:52:51.518Z,24.00
2017-09-24T21:55:18.307Z,21.67
2017-09-24T21:57:45.043Z,22.70
2017-09-24T22:00:11.831Z,22.97
2017-09-24T22:02:38.606Z,22.30
2017-09-24T22:05:05.375Z,22.60
2017-09-24T22:07:32.151Z,22.27
2017-09-24T22:09:58.917Z,22.73
2017-09-24T22:12:25.693Z,21.60
2017-09-24T22:14:53.246Z,22.67
2017-09-24T22:17:20.014Z,19.60
2017-09-24T22:19:46.772Z,22.40
2017-09-24T22:22:13.562Z,21.33
2017-09-24T22:24:40.325Z,22.33
2017-09-24T22:27:07.078Z,22.00
2017-09-24T22:29:33.857Z,22.63
2017-09-24T22:32:00.616Z,20.23
2017-09-24T22:34:27.365Z,20.73
2017-09-24T22:36:54.167Z,20.93
2017-09-24T22:39:20.927Z,22.20
2017-09-24T22:41:47.688Z,22.63
2017-09-24T22:44:14.472Z,21.80
2017-09-24T22:46:41.212Z,20.90
2017-09-24T22:49:07.979Z,20.90
2017-09-24T22:51:34.761Z,19.13
2017-09-24T22:54:01.507Z,19.33
2017-09-24T22:56:28.279Z,19.67
2017-09-24T22:58:55.065Z,18.77
2017-09-24T23:01:21.838Z,21.17
2017-09-24T23:03:48.598Z,19.00
2017-09-24T23:06:15.423Z,18.93
2017-09-24T23:08:42.167Z,18.07
2017-09-24T23:11:08.935Z,19.17
2017-09-24T23:13:35.758Z,19.93
2017-09-24T23:16:02.521Z,20.67
2017-09-24T23:18:29.301Z,21.40
2017-09-24T23:20:56.102Z,19.60
2017-09-24T23:23:22.840Z,19.93
2017-09-24T23:25:49.602Z,19.27
2017-09-24T23:28:16.379Z,19.60
2017-09-24T23:30:43.142Z,19.00
2017-09-24T23:33:09.907Z,19.23
2017-09-24T23:35:36.695Z,18.53
2017-09-24T23:38:03.465Z,19.07
2017-09-24T23:40:30.368Z,17.40
2017-09-24T23:42:57.906Z,18.67
2017-09-24T23:45:24.682Z,17.53
2017-09-24T23:47:51.428Z,17.57
2017-09-24T23:50:18.220Z,18.03
2017-09-24T23:52:44.981Z,19.33
2017-09-24T23:55:11.731Z,18.80
2017-09-24T23:57:38.513Z,19.57
